Time;durP1;ratioP1;P1;durP2;ratioP2;P2;SDS_P1;SDS_P2;PMS_P1;PMS_P2;Temp;Humidity;BMP_temperature;BMP_pressure;BME280_temperature;BME280_humidity;BME280_pressure;Samples;Min_cycle;Max_cycle;Signal;HPM_P1;HPM_P2
2023/05/23 00:00:23;;;;;;;27.20;10.52;;;13.80;99.90;;;;;;5090571;28;20039;-69
2023/05/23 00:02:49;;;;;;;35.95;11.05;;;13.80;99.90;;;;;;5072127;28;20456;-68
2023/05/23 00:05:16;;;;;;;28.98;11.38;;;13.80;99.90;;;;;;5076300;27;20047;-63
2023/05/23 00:07:45;;;;;;;27.80;9.45;;;13.80;99.90;;;;;;5091729;28;20050;-63
2023/05/23 00:10:12;;;;;;;29.50;8.35;;;13.80;99.90;;;;;;5080952;28;20063;-69
2023/05/23 00:12:41;;;;;;;22.73;7.88;;;13.80;99.90;;;;;;5086170;28;20117;-68
2023/05/23 00:15:08;;;;;;;15.40;8.02;;;13.90;99.90;;;;;;5090820;28;20043;-67
2023/05/23 00:17:38;;;;;;;17.80;8.02;;;13.90;99.90;;;;;;5091432;28;20052;-67
2023/05/23 00:20:08;;;;;;;25.42;8.18;;;13.90;99.90;;;;;;5074466;28;20135;-64
2023/05/23 00:22:35;;;;;;;21.95;9.38;;;13.90;99.90;;;;;;5073022;28;20051;-65
2023/05/23 00:25:02;;;;;;;23.55;7.82;;;13.90;99.90;;;;;;5090879;28;20115;-63
2023/05/23 00:27:27;;;;;;;22.30;7.40;;;13.90;99.90;;;;;;5073189;28;20126;-68
2023/05/23 00:29:53;;;;;;;23.17;7.78;;;13.80;99.90;;;;;;5092546;27;20130;-63
2023/05/23 00:32:19;;;;;;;23.75;7.22;;;13.90;99.90;;;;;;5096589;28;20058;-63
2023/05/23 00:34:45;;;;;;;21.88;7.57;;;13.90;99.90;;;;;;5072137;28;20036;-67
2023/05/23 00:37:11;;;;;;;29.98;8.60;;;13.90;99.90;;;;;;5077311;28;20055;-69
2023/05/23 00:39:39;;;;;;;30.92;8.27;;;13.90;99.90;;;;;;5089836;28;20486;-63
2023/05/23 00:42:06;;;;;;;24.20;7.95;;;13.80;99.90;;;;;;5091765;28;20035;-68
2023/05/23 00:44:32;;;;;;;28.38;9.07;;;13.80;99.90;;;;;;5112987;27;20478;-63
2023/05/23 00:46:58;;;;;;;21.13;8.35;;;13.80;99.90;;;;;;5098898;28;20486;-68
2023/05/23 00:49:26;;;;;;;17.02;7.75;;;13.80;99.90;;;;;;5089862;28;20126;-62
2023/05/23 00:51:52;;;;;;;32.80;10.10;;;13.80;99.90;;;;;;5054748;28;20040;-69
2023/05/23 00:54:26;;;;;;;29.70;9.05;;;13.80;99.90;;;;;;5089715;28;20062;-62
2023/05/23 00:56:52;;;;;;;28.95;8.77;;;13.70;99.90;;;;;;5090459;28;20035;-68
2023/05/23 00:59:20;;;;;;;28.90;9.32;;;13.70;99.90;;;;;;5072648;28;20043;-70
2023/05/23 01:01:49;;;;;;;21.40;9.00;;;13.60;99.90;;;;;;5089534;28;20137;-67
2023/05/23 01:04:16;;;;;;;24.98;9.23;;;13.60;99.90;;;;;;5090105;28;20043;-75
2023/05/23 01:06:45;;;;;;;31.00;10.35;;;13.60;99.90;;;;;;5072901;28;20075;-66
2023/05/23 01:09:13;;;;;;;27.50;9.38;;;13.60;99.90;;;;;;5086141;28;20134;-64
2023/05/23 01:12:19;;;;;;;35.67;10.20;;;13.60;99.90;;;;;;5062712;28;20453;-63
2023/05/23 01:15:05;;;;;;;34.03;10.20;;;13.60;99.90;;;;;;5076135;28;20052;-67
2023/05/23 01:17:47;;;;;;;24.05;8.38;;;13.60;99.90;;;;;;5090461;27;20058;-67
2023/05/23 01:20:24;;;;;;;29.25;8.38;;;13.60;99.90;;;;;;5089351;28;20082;-64
2023/05/23 01:22:59;;;;;;;28.60;7.30;;;13.50;99.90;;;;;;5089116;28;20112;-66
2023/05/23 01:25:37;;;;;;;27.27;8.25;;;13.50;99.90;;;;;;5072311;28;20059;-68
2023/05/23 01:28:06;;;;;;;34.25;7.55;;;13.40;99.90;;;;;;5073350;27;20048;-65
2023/05/23 01:30:37;;;;;;;25.63;8.23;;;13.40;99.90;;;;;;5071755;28;20524;-69
2023/05/23 01:33:04;;;;;;;23.45;6.88;;;13.40;99.90;;;;;;5072346;28;20038;-65
2023/05/23 01:35:31;;;;;;;21.80;7.13;;;13.40;99.90;;;;;;5088381;28;20104;-69
2023/05/23 01:37:57;;;;;;;24.40;6.78;;;13.40;99.90;;;;;;5089131;28;20143;-75
2023/05/23 01:40:24;;;;;;;17.02;6.30;;;13.40;99.90;;;;;;5088466;28;20123;-65
2023/05/23 01:42:52;;;;;;;20.17;6.40;;;13.30;99.90;;;;;;5072665;28;20047;-68
2023/05/23 01:45:19;;;;;;;24.23;5.85;;;13.40;99.90;;;;;;5089845;28;20059;-69
2023/05/23 01:47:48;;;;;;;18.52;6.60;;;13.40;99.90;;;;;;5089584;28;20401;-70
2023/05/23 01:50:15;;;;;;;23.60;6.38;;;13.40;99.90;;;;;;5072015;28;20054;-67
2023/05/23 01:52:41;;;;;;;15.05;5.15;;;13.40;99.90;;;;;;5088509;28;20724;-63
2023/05/23 01:55:08;;;;;;;19.20;6.13;;;13.40;99.90;;;;;;5095345;28;20055;-71
2023/05/23 01:57:38;;;;;;;17.48;5.05;;;13.40;99.90;;;;;;5088311;28;20078;-63
2023/05/23 02:00:06;;;;;;;19.48;5.45;;;13.30;99.90;;;;;;5072270;28;20069;-66
2023/05/23 02:02:34;;;;;;;25.92;5.65;;;13.30;99.90;;;;;;5071166;28;20126;-68
2023/05/23 02:05:00;;;;;;;20.35;5.57;;;13.30;99.90;;;;;;5088576;28;20506;-63
2023/05/23 02:07:26;;;;;;;18.08;4.70;;;13.30;99.90;;;;;;5088527;28;20448;-67
2023/05/23 02:09:52;;;;;;;17.08;4.93;;;13.20;99.90;;;;;;5079565;28;20092;-69
2023/05/23 02:12:18;;;;;;;17.75;4.45;;;13.10;99.90;;;;;;5083099;28;20489;-69
2023/05/23 02:14:44;;;;;;;14.98;5.05;;;13.10;99.90;;;;;;5071255;27;20040;-69
2023/05/23 02:17:10;;;;;;;18.38;4.90;;;13.10;99.90;;;;;;5088998;28;20370;-63
2023/05/23 02:19:36;;;;;;;12.77;4.65;;;13.20;99.90;;;;;;5070952;28;20498;-66
2023/05/23 02:22:02;;;;;;;17.20;4.57;;;13.00;99.90;;;;;;5088319;28;20130;-66
2023/05/23 02:24:28;;;;;;;12.80;4.63;;;13.10;99.90;;;;;;5087689;28;20048;-64
2023/05/23 02:26:55;;;;;;;10.27;4.10;;;13.10;99.90;;;;;;5070899;28;20039;-68
2023/05/23 02:29:20;;;;;;;14.85;4.13;;;13.10;99.90;;;;;;5071240;28;20517;-63
2023/05/23 02:31:46;;;;;;;21.05;4.03;;;13.10;99.90;;;;;;5087391;28;20051;-65
2023/05/23 02:34:12;;;;;;;18.55;5.35;;;13.00;99.90;;;;;;5088224;28;20058;-68
2023/05/23 02:36:38;;;;;;;22.70;5.32;;;13.00;99.90;;;;;;5087270;28;20073;-63
2023/05/23 02:39:04;;;;;;;26.35;6.10;;;12.90;99.90;;;;;;5071447;28;20047;-64
2023/05/23 02:41:30;;;;;;;19.75;5.05;;;13.00;99.90;;;;;;5086961;28;20043;-69
2023/05/23 02:43:57;;;;;;;31.27;6.25;;;12.90;99.90;;;;;;5088545;28;20043;-68
2023/05/23 02:46:22;;;;;;;21.13;5.65;;;13.00;99.90;;;;;;5088067;28;20047;-69
2023/05/23 02:48:48;;;;;;;18.33;5.28;;;12.90;99.90;;;;;;5070414;28;20047;-64
2023/05/23 02:51:14;;;;;;;22.10;5.15;;;12.90;99.90;;;;;;5087831;28;20159;-70
2023/05/23 02:53:40;;;;;;;17.67;5.40;;;12.90;99.90;;;;;;5077248;28;20051;-66
2023/05/23 02:56:07;;;;;;;27.73;6.50;;;12.90;99.90;;;;;;5087779;28;20122;-67
2023/05/23 02:58:34;;;;;;;20.98;6.47;;;12.90;99.90;;;;;;5087175;28;20039;-72
2023/05/23 03:01:01;;;;;;;21.88;5.53;;;12.80;99.90;;;;;;5087713;28;20395;-69
2023/05/23 03:03:27;;;;;;;22.73;6.63;;;12.80;99.90;;;;;;5087882;28;20158;-63
2023/05/23 03:05:53;;;;;;;31.35;7.38;;;12.70;99.90;;;;;;5071731;28;20545;-64
2023/05/23 03:08:19;;;;;;;19.33;5.93;;;12.70;99.90;;;;;;5071030;28;20043;-67
2023/05/23 03:10:45;;;;;;;26.52;6.50;;;12.50;99.90;;;;;;5072373;28;20520;-69
2023/05/23 03:13:10;;;;;;;37.00;7.55;;;12.60;99.90;;;;;;5070858;28;20177;-71
2023/05/23 03:15:36;;;;;;;23.25;6.13;;;12.60;99.90;;;;;;5070174;28;20104;-65
2023/05/23 03:18:02;;;;;;;21.70;6.22;;;12.50;99.90;;;;;;5093001;27;20499;-71
2023/05/23 03:20:28;;;;;;;23.33;5.70;;;12.40;99.90;;;;;;5078621;28;20547;-67
2023/05/23 03:22:54;;;;;;;21.40;5.28;;;12.40;99.90;;;;;;5073328;28;20047;-68
2023/05/23 03:25:19;;;;;;;21.58;4.95;;;12.40;99.90;;;;;;5058647;27;20039;-63
2023/05/23 03:27:45;;;;;;;15.32;4.07;;;12.30;99.90;;;;;;5101410;28;20061;-63
2023/05/23 03:30:11;;;;;;;20.48;5.57;;;12.40;99.90;;;;;;5070906;28;20054;-65
2023/05/23 03:32:37;;;;;;;18.05;5.47;;;12.30;99.90;;;;;;5089564;28;20051;-65
2023/05/23 03:35:03;;;;;;;14.23;5.18;;;12.40;99.90;;;;;;5099044;28;20035;-67
2023/05/23 03:37:28;;;;;;;15.25;4.63;;;12.30;99.90;;;;;;5086914;28;20474;-69
2023/05/23 03:39:54;;;;;;;32.67;6.38;;;12.40;99.90;;;;;;5086686;28;20044;-64
2023/05/23 03:42:20;;;;;;;27.13;5.63;;;12.40;99.90;;;;;;5087854;28;20043;-64
2023/05/23 03:44:45;;;;;;;26.45;5.72;;;12.40;99.90;;;;;;5087795;28;20394;-74
2023/05/23 03:47:11;;;;;;;20.98;5.65;;;12.30;99.90;;;;;;5083741;28;20122;-63
2023/05/23 03:49:37;;;;;;;28.15;6.00;;;12.40;99.90;;;;;;5063550;28;20093;-65
2023/05/23 03:52:03;;;;;;;21.85;5.53;;;12.40;99.90;;;;;;5087132;28;20043;-68
2023/05/23 03:54:28;;;;;;;19.77;5.05;;;12.40;99.90;;;;;;5086572;28;20044;-68
2023/05/23 03:56:54;;;;;;;22.27;5.07;;;12.30;99.90;;;;;;5070068;28;20067;-63
2023/05/23 03:59:20;;;;;;;27.05;5.38;;;12.30;99.90;;;;;;5087975;28;20051;-65
2023/05/23 04:01:46;;;;;;;20.58;5.07;;;12.40;99.90;;;;;;5086315;28;20042;-69
2023/05/23 04:04:11;;;;;;;19.63;4.90;;;12.40;99.90;;;;;;5087130;28;20079;-65
2023/05/23 04:06:38;;;;;;;22.45;4.53;;;12.40;99.90;;;;;;5069933;28;20051;-72
2023/05/23 04:09:05;;;;;;;21.70;5.13;;;12.40;99.90;;;;;;5084817;28;20035;-73
2023/05/23 04:11:31;;;;;;;14.77;3.72;;;12.40;99.90;;;;;;5082617;28;20047;-62
2023/05/23 04:13:57;;;;;;;18.65;5.25;;;12.40;99.90;;;;;;5086307;28;20051;-62
2023/05/23 04:16:23;;;;;;;38.67;7.93;;;12.40;99.90;;;;;;5087082;28;20043;-62
2023/05/23 04:18:50;;;;;;;24.30;4.68;;;12.30;99.90;;;;;;5086326;28;20130;-70
2023/05/23 04:21:16;;;;;;;19.02;4.30;;;12.40;99.90;;;;;;5087228;28;20401;-65
2023/05/23 04:23:42;;;;;;;18.02;4.40;;;12.40;99.90;;;;;;5086992;28;20047;-68
2023/05/23 04:26:09;;;;;;;16.52;3.72;;;12.30;99.90;;;;;;5069941;28;20040;-63
2023/05/23 04:28:34;;;;;;;17.55;4.32;;;12.40;99.90;;;;;;5069846;28;20047;-66
2023/05/23 04:31:02;;;;;;;10.93;2.70;;;12.30;99.90;;;;;;5086167;28;20731;-65
2023/05/23 04:33:29;;;;;;;21.05;4.25;;;12.30;99.90;;;;;;5086258;28;20163;-64
2023/05/23 04:35:56;;;;;;;14.75;3.30;;;12.30;99.90;;;;;;5086875;28;20040;-65
2023/05/23 04:38:24;;;;;;;21.10;5.03;;;12.30;99.90;;;;;;5088592;28;20505;-62
2023/05/23 04:40:51;;;;;;;18.55;3.67;;;12.30;99.90;;;;;;5089836;28;20058;-67
2023/05/23 04:43:18;;;;;;;15.38;3.45;;;12.30;99.90;;;;;;5056951;28;20044;-72
2023/05/23 04:45:48;;;;;;;20.30;4.07;;;12.30;99.90;;;;;;5072486;28;20128;-70
2023/05/23 04:48:16;;;;;;;20.75;3.72;;;12.30;99.90;;;;;;5074342;28;20180;-69
2023/05/23 04:50:42;;;;;;;17.60;2.95;;;12.30;99.90;;;;;;5089674;28;20047;-66
2023/05/23 04:53:08;;;;;;;21.08;3.58;;;12.30;99.90;;;;;;5089787;28;20358;-64
2023/05/23 04:55:34;;;;;;;17.52;3.33;;;12.30;99.90;;;;;;5056872;28;20389;-66
2023/05/23 04:57:59;;;;;;;23.35;4.53;;;12.30;99.90;;;;;;5072957;28;20039;-66
2023/05/23 05:00:25;;;;;;;23.40;3.58;;;12.30;99.90;;;;;;5058915;28;20488;-66
2023/05/23 05:02:51;;;;;;;18.13;4.05;;;12.30;99.90;;;;;;5055415;28;20397;-68
2023/05/23 05:05:17;;;;;;;11.05;3.35;;;12.30;99.90;;;;;;5072943;28;20035;-70
2023/05/23 05:07:43;;;;;;;17.85;2.83;;;12.30;99.90;;;;;;5089572;28;20367;-75
2023/05/23 05:10:15;;;;;;;11.15;2.75;;;12.20;99.90;;;;;;5061373;28;20059;-69
2023/05/23 05:12:46;;;;;;;15.10;3.55;;;12.20;99.90;;;;;;5087670;28;20047;-66
2023/05/23 05:15:18;;;;;;;18.92;3.55;;;12.20;99.90;;;;;;5108233;28;20386;-66
2023/05/23 05:17:45;;;;;;;15.90;3.90;;;12.20;99.90;;;;;;5072643;28;20522;-67
2023/05/23 05:20:11;;;;;;;23.52;3.38;;;12.20;99.90;;;;;;5071477;28;20137;-69
2023/05/23 05:22:41;;;;;;;17.13;4.10;;;12.20;99.90;;;;;;5089866;27;20059;-70
2023/05/23 05:25:08;;;;;;;21.98;4.53;;;12.00;99.90;;;;;;5100874;28;20044;-69
2023/05/23 05:27:36;;;;;;;23.50;5.28;;;12.00;99.90;;;;;;5072981;28;20458;-62
2023/05/23 05:30:06;;;;;;;18.10;4.38;;;12.00;99.90;;;;;;5072207;28;20413;-67
2023/05/23 05:32:32;;;;;;;;;;;11.90;99.90;;;;;;5090084;28;20122;-69
2023/05/23 05:35:02;;;;;;;26.05;4.32;;;11.90;99.90;;;;;;5091742;27;20382;-62
2023/05/23 05:37:28;;;;;;;15.98;3.75;;;11.80;99.90;;;;;;5096796;28;20050;-68
2023/05/23 05:39:54;;;;;;;18.52;4.07;;;11.80;99.90;;;;;;5088864;28;20051;-65
2023/05/23 05:42:22;;;;;;;17.63;4.20;;;11.90;99.90;;;;;;5107259;28;20375;-67
2023/05/23 05:44:48;;;;;;;19.90;4.90;;;11.90;99.90;;;;;;5089064;28;20096;-62
2023/05/23 05:47:15;;;;;;;16.95;4.97;;;11.80;99.90;;;;;;5071781;27;20039;-62
2023/05/23 05:49:41;;;;;;;25.02;4.53;;;11.80;99.90;;;;;;5072992;28;20471;-68
2023/05/23 05:52:07;;;;;;;16.30;4.07;;;11.60;99.90;;;;;;5088724;28;20120;-66
2023/05/23 05:54:33;;;;;;;11.27;3.25;;;11.60;99.90;;;;;;5088478;28;20526;-66
2023/05/23 05:56:58;;;;;;;16.40;4.50;;;11.60;99.90;;;;;;5088578;28;20048;-72
2023/05/23 05:59:24;;;;;;;21.25;4.43;;;11.60;99.90;;;;;;5071314;28;20043;-65
2023/05/23 06:01:51;;;;;;;19.95;3.67;;;11.60;99.90;;;;;;5090643;28;20051;-65
2023/05/23 06:04:16;;;;;;;4.10;2.28;;;11.60;99.90;;;;;;5087737;28;20047;-69
2023/05/23 06:06:42;;;;;;;14.82;4.03;;;11.60;99.90;;;;;;5090502;28;20043;-69
2023/05/23 06:09:09;;;;;;;29.75;4.38;;;11.70;99.90;;;;;;5086739;28;20402;-67
2023/05/23 06:11:39;;;;;;;24.25;4.43;;;11.70;99.90;;;;;;5088534;28;20490;-64
2023/05/23 06:14:08;;;;;;;;;;;11.80;99.90;;;;;;5074568;28;20079;-69
2023/05/23 06:16:34;;;;;;;16.15;3.70;;;11.70;99.90;;;;;;5092485;28;19947;-69
2023/05/23 06:19:00;;;;;;;17.23;3.70;;;11.70;99.90;;;;;;5085817;28;20052;-69
2023/05/23 06:21:26;;;;;;;11.50;2.95;;;11.60;99.90;;;;;;5071323;27;20105;-75
2023/05/23 06:23:52;;;;;;;20.75;5.20;;;11.60;99.90;;;;;;5099119;27;20036;-65
2023/05/23 06:26:18;;;;;;;16.77;3.47;;;11.60;99.90;;;;;;5095458;28;20047;-69
2023/05/23 06:28:44;;;;;;;17.25;3.63;;;11.50;99.90;;;;;;5087961;28;20073;-65
2023/05/23 06:31:09;;;;;;;16.88;3.20;;;11.40;99.90;;;;;;5088833;28;20087;-63
2023/05/23 06:33:35;;;;;;;13.05;3.08;;;11.40;99.90;;;;;;5104621;28;20039;-64
2023/05/23 06:36:01;;;;;;;15.07;3.05;;;11.30;99.90;;;;;;5070862;28;20814;-67
2023/05/23 06:38:30;;;;;;;17.80;3.00;;;11.30;99.90;;;;;;5087442;28;20086;-70
2023/05/23 06:40:55;;;;;;;14.88;3.97;;;11.20;99.90;;;;;;5071346;28;20044;-62
2023/05/23 06:43:21;;;;;;;20.25;4.03;;;11.30;99.90;;;;;;5120922;27;20040;-64
2023/05/23 06:45:47;;;;;;;14.75;3.28;;;11.40;99.90;;;;;;5070869;28;20616;-72
2023/05/23 06:48:13;;;;;;;20.98;4.00;;;11.40;99.90;;;;;;5069373;28;20048;-61
2023/05/23 06:50:40;;;;;;;18.48;3.80;;;11.40;99.90;;;;;;5071086;28;20059;-63
2023/05/23 06:53:05;;;;;;;14.45;3.22;;;11.40;99.90;;;;;;5121294;27;20478;-61
2023/05/23 06:55:32;;;;;;;16.23;3.70;;;11.40;99.90;;;;;;5075012;28;20042;-68
2023/05/23 06:58:03;;;;;;;15.10;3.20;;;11.30;99.90;;;;;;5107181;27;20119;-68
2023/05/23 07:00:30;;;;;;;15.68;3.60;;;11.40;99.90;;;;;;5087319;28;20641;-64
2023/05/23 07:02:59;;;;;;;23.55;4.25;;;11.40;99.90;;;;;;5093742;28;20107;-68
2023/05/23 07:05:27;;;;;;;26.40;4.07;;;11.50;99.90;;;;;;5088450;28;20051;-67
2023/05/23 07:07:53;;;;;;;28.13;4.43;;;11.50;99.90;;;;;;5088413;28;20042;-67
2023/05/23 07:10:19;;;;;;;24.38;3.92;;;11.40;99.90;;;;;;5085381;28;20093;-70
2023/05/23 07:12:45;;;;;;;27.08;3.88;;;11.40;99.90;;;;;;5085946;28;20059;-66
2023/05/23 07:15:12;;;;;;;24.27;4.32;;;11.40;99.90;;;;;;5087234;28;20052;-74
2023/05/23 07:17:38;;;;;;;23.10;4.97;;;11.30;99.90;;;;;;5086121;28;20051;-62
2023/05/23 07:20:04;;;;;;;17.77;4.13;;;11.40;99.90;;;;;;5120466;27;20066;-66
2023/05/23 07:22:30;;;;;;;26.58;4.88;;;11.50;99.90;;;;;;5095940;27;20126;-64
2023/05/23 07:24:56;;;;;;;23.88;4.53;;;11.50;99.90;;;;;;5081047;28;20039;-62
2023/05/23 07:27:21;;;;;;;19.63;4.18;;;11.60;99.90;;;;;;5087111;28;20043;-62
2023/05/23 07:29:47;;;;;;;24.50;4.45;;;11.70;99.90;;;;;;5081174;28;20173;-67
2023/05/23 07:32:13;;;;;;;18.20;4.18;;;11.80;99.90;;;;;;5071160;28;20059;-69
2023/05/23 07:34:39;;;;;;;15.65;3.60;;;11.80;99.90;;;;;;5086850;28;20461;-68
2023/05/23 07:37:05;;;;;;;27.88;4.60;;;11.60;98.10;;;;;;5120784;28;20036;-69
2023/05/23 07:39:30;;;;;;;19.80;4.03;;;11.60;99.90;;;;;;5086537;28;20490;-64
2023/05/23 07:41:56;;;;;;;29.77;5.10;;;11.60;99.90;;;;;;5070554;28;20059;-69
2023/05/23 07:44:22;;;;;;;23.08;4.35;;;11.60;99.90;;;;;;5100865;28;20077;-65
2023/05/23 07:46:48;;;;;;;17.85;3.47;;;11.60;99.90;;;;;;5087422;28;20047;-66
2023/05/23 07:49:13;;;;;;;21.02;4.03;;;11.70;99.90;;;;;;5056498;28;20028;-66
2023/05/23 07:51:40;;;;;;;23.90;4.07;;;11.80;99.90;;;;;;5065999;28;20122;-70
2023/05/23 07:54:06;;;;;;;26.88;5.22;;;11.90;99.90;;;;;;5069991;28;20444;-73
2023/05/23 07:56:32;;;;;;;28.45;5.07;;;11.90;99.90;;;;;;5069676;28;20040;-63
2023/05/23 07:58:57;;;;;;;29.88;4.55;;;12.00;97.80;;;;;;5110842;28;20040;-65
2023/05/23 08:01:24;;;;;;;29.77;5.85;;;12.10;99.90;;;;;;5086049;28;20189;-66
2023/05/23 08:03:50;;;;;;;25.23;5.03;;;12.20;99.40;;;;;;5088498;28;20044;-69
2023/05/23 08:06:15;;;;;;;30.95;4.63;;;12.10;95.60;;;;;;5101241;28;20042;-69
2023/05/23 08:08:42;;;;;;;24.42;4.65;;;12.20;99.90;;;;;;5074348;28;20401;-69
2023/05/23 08:11:08;;;;;;;27.00;4.28;;;12.30;94.50;;;;;;5059617;28;20043;-74
2023/05/23 08:13:34;;;;;;;21.40;4.30;;;12.50;93.70;;;;;;5090222;28;20558;-63
2023/05/23 08:16:00;;;;;;;24.95;4.45;;;12.60;95.80;;;;;;5057078;28;20040;-69
2023/05/23 08:18:27;;;;;;;17.50;3.47;;;12.60;92.80;;;;;;5111887;27;20087;-65
2023/05/23 08:20:53;;;;;;;21.58;3.88;;;12.60;94.70;;;;;;5071346;27;20036;-66
2023/05/23 08:23:19;;;;;;;22.63;5.07;;;12.60;94.00;;;;;;5081209;27;20058;-65
2023/05/23 08:25:44;;;;;;;21.45;5.28;;;12.50;94.90;;;;;;5096157;27;20039;-67
2023/05/23 08:28:10;;;;;;;26.25;4.53;;;12.30;93.90;;;;;;5090014;27;20047;-76
2023/05/23 08:30:36;;;;;;;22.95;4.15;;;12.30;98.20;;;;;;5057093;28;20043;-63
2023/05/23 08:33:03;;;;;;;23.65;4.32;;;12.30;94.10;;;;;;5090619;27;20035;-63
2023/05/23 08:35:33;;;;;;;27.30;4.93;;;12.30;95.50;;;;;;5092107;28;20055;-65
2023/05/23 08:38:03;;;;;;;25.52;4.15;;;12.30;94.20;;;;;;5062260;28;20577;-70
2023/05/23 08:40:30;;;;;;;21.23;3.88;;;12.40;95.30;;;;;;5108071;27;20640;-66
2023/05/23 08:42:56;;;;;;;34.30;5.95;;;12.40;95.70;;;;;;5089289;28;20039;-67
2023/05/23 08:45:22;;;;;;;16.77;4.60;;;12.50;97.40;;;;;;5106156;28;20058;-62
2023/05/23 08:47:50;;;;;;;16.63;3.88;;;12.40;93.80;;;;;;5089456;28;20044;-65
2023/05/23 08:50:16;;;;;;;19.50;3.58;;;12.60;94.00;;;;;;5091022;28;20052;-74
2023/05/23 08:53:03;;;;;;;16.55;5.13;;;12.80;93.00;;;;;;5107438;28;20047;-64
2023/05/23 08:55:29;;;;;;;11.13;3.13;;;12.90;89.50;;;;;;5098742;28;20059;-67
2023/05/23 08:57:59;;;;;;;28.30;5.82;;;12.80;86.50;;;;;;5119687;27;20075;-67
2023/05/23 09:00:25;;;;;;;25.35;4.13;;;13.00;91.10;;;;;;5122755;27;20131;-64
2023/05/23 09:02:52;;;;;;;16.90;3.88;;;13.10;91.60;;;;;;5121987;27;20210;-64
2023/05/23 09:05:18;;;;;;;28.55;5.47;;;13.00;90.00;;;;;;5083506;28;20130;-70
2023/05/23 09:07:49;;;;;;;28.33;4.85;;;13.00;85.40;;;;;;5055374;28;20132;-69
2023/05/23 09:10:21;;;;;;;22.33;3.85;;;12.90;89.40;;;;;;5062379;27;20047;-71
2023/05/23 09:12:48;;;;;;;22.65;3.90;;;12.80;90.10;;;;;;5087392;28;20043;-65
2023/05/23 09:15:13;;;;;;;18.27;3.58;;;12.70;90.80;;;;;;5088516;28;20501;-62
2023/05/23 09:17:39;;;;;;;17.88;3.53;;;12.70;94.10;;;;;;5088031;28;20039;-66
2023/05/23 09:20:14;;;;;;;14.20;3.03;;;12.90;89.80;;;;;;5089124;28;20059;-65
2023/05/23 09:22:44;;;;;;;21.45;3.60;;;13.00;90.40;;;;;;5107503;27;20217;-64
2023/05/23 09:25:10;;;;;;;23.58;3.72;;;13.20;92.40;;;;;;5091114;27;20054;-76
2023/05/23 09:27:36;;;;;;;10.40;2.95;;;13.10;90.90;;;;;;5091588;27;20423;-65
2023/05/23 09:30:09;;;;;;;14.60;3.30;;;13.10;91.20;;;;;;5092663;27;20497;-63
2023/05/23 09:32:35;;;;;;;27.45;4.65;;;12.90;87.50;;;;;;5072239;28;20081;-64
2023/05/23 09:35:03;;;;;;;28.67;4.72;;;12.80;90.70;;;;;;5085360;28;20151;-64
2023/05/23 09:37:31;;;;;;;18.77;3.83;;;12.90;92.60;;;;;;5079427;28;20077;-63
2023/05/23 09:39:59;;;;;;;17.95;4.20;;;12.90;93.00;;;;;;5088530;28;20092;-71
2023/05/23 09:42:30;;;;;;;21.13;3.90;;;13.00;93.80;;;;;;5088715;28;20089;-71
2023/05/23 09:44:57;;;;;;;23.27;5.18;;;13.20;84.50;;;;;;5088351;28;20546;-69
2023/05/23 09:47:23;;;;;;;18.80;3.42;;;13.20;80.70;;;;;;5088789;27;20119;-64
2023/05/23 09:49:50;;;;;;;19.73;3.42;;;13.20;84.30;;;;;;5093072;28;20064;-68
2023/05/23 09:52:16;;;;;;;17.98;3.47;;;13.30;90.50;;;;;;5089198;28;20047;-65
2023/05/23 09:54:43;;;;;;;19.88;3.80;;;13.40;84.00;;;;;;5071684;28;20054;-65
2023/05/23 09:57:10;;;;;;;27.17;4.70;;;13.40;88.10;;;;;;5086480;28;20427;-66
2023/05/23 09:59:41;;;;;;;27.15;5.25;;;13.30;82.40;;;;;;5100791;27;20107;-64
2023/05/23 10:02:11;;;;;;;20.63;4.22;;;13.20;86.00;;;;;;5080342;28;20047;-76
2023/05/23 10:04:38;;;;;;;17.63;3.67;;;13.20;82.70;;;;;;5087807;28;20054;-65
2023/05/23 10:07:14;;;;;;;21.02;4.18;;;13.40;69.40;;;;;;5088546;28;20379;-70
2023/05/23 10:09:44;;;;;;;25.15;4.07;;;13.40;69.30;;;;;;5085723;27;20076;-62
2023/05/23 10:12:43;;;;;;;22.30;3.53;;;13.30;74.90;;;;;;5094958;27;20082;-67
2023/05/23 10:15:12;;;;;;;35.20;4.83;;;13.20;77.20;;;;;;5073387;27;20393;-70
2023/05/23 10:17:51;;;;;;;19.27;3.60;;;13.10;71.70;;;;;;5103977;28;20127;-65
2023/05/23 10:20:21;;;;;;;19.65;4.22;;;13.00;81.70;;;;;;5071474;28;20059;-70
2023/05/23 10:22:48;;;;;;;24.73;3.83;;;13.00;83.00;;;;;;5091164;27;20051;-64
2023/05/23 10:25:15;;;;;;;19.48;3.65;;;12.90;76.60;;;;;;5098956;28;20074;-70
2023/05/23 10:27:43;;;;;;;22.70;4.40;;;12.90;91.40;;;;;;5086266;28;20051;-65
2023/05/23 10:30:09;;;;;;;33.92;4.15;;;12.90;81.20;;;;;;5093751;27;20042;-70
2023/05/23 10:32:37;;;;;;;31.67;5.65;;;12.90;86.50;;;;;;5088628;28;20031;-71
2023/05/23 10:35:09;;;;;;;29.60;4.43;;;13.10;84.60;;;;;;5086711;28;20512;-68
2023/05/23 10:37:47;;;;;;;17.88;4.28;;;13.10;72.40;;;;;;5094361;27;20099;-66
2023/05/23 10:40:41;;;;;;;23.90;4.25;;;13.20;83.00;;;;;;5117916;27;20052;-70
2023/05/23 10:43:15;;;;;;;18.10;4.00;;;13.10;84.80;;;;;;5101198;28;20405;-64
2023/05/23 10:45:42;;;;;;;14.40;2.90;;;13.10;88.90;;;;;;5087017;28;20099;-63
2023/05/23 10:48:30;;;;;;;23.15;4.72;;;13.10;84.90;;;;;;5087868;28;20031;-64
2023/05/23 10:51:02;;;;;;;19.25;4.10;;;13.20;92.10;;;;;;5088140;28;20039;-63
2023/05/23 10:53:30;;;;;;;26.15;3.28;;;13.30;76.60;;;;;;5086462;28;20056;-68
2023/05/23 10:55:56;;;;;;;19.40;3.53;;;13.20;77.00;;;;;;5078454;27;20082;-62
2023/05/23 10:58:22;;;;;;;20.17;3.70;;;13.20;75.70;;;;;;5099273;28;20065;-71
2023/05/23 11:00:55;;;;;;;24.88;4.13;;;13.30;79.00;;;;;;5088630;28;20486;-61
2023/05/23 11:03:35;;;;;;;19.02;3.67;;;13.50;87.60;;;;;;5086981;28;20075;-64
2023/05/23 11:06:02;;;;;;;24.38;4.10;;;13.70;65.20;;;;;;5086238;28;20652;-61
2023/05/23 11:08:36;;;;;;;20.58;4.10;;;13.60;72.60;;;;;;5083589;27;20485;-67
2023/05/23 11:11:03;;;;;;;25.13;4.90;;;13.50;68.20;;;;;;5085393;28;20046;-66
2023/05/23 11:14:07;;;;;;;17.77;3.67;;;13.40;75.80;;;;;;5070599;27;20561;-69
2023/05/23 11:16:45;;;;;;;22.05;4.18;;;13.50;73.00;;;;;;5025239;28;20049;-68
2023/05/23 11:19:20;;;;;;;23.73;3.80;;;13.40;66.70;;;;;;5007619;28;20050;-64
2023/05/23 11:22:02;;;;;;;18.00;3.65;;;13.50;75.30;;;;;;5055156;28;20051;-65
2023/05/23 11:24:50;;;;;;;22.38;3.45;;;13.40;71.00;;;;;;5070746;28;20039;-62
2023/05/23 11:27:24;;;;;;;19.70;3.47;;;13.40;72.00;;;;;;5087574;28;20093;-65
2023/05/23 11:30:06;;;;;;;26.45;4.43;;;13.30;75.00;;;;;;5090679;27;20043;-72
2023/05/23 11:32:32;;;;;;;20.75;5.03;;;13.30;77.00;;;;;;5087432;28;20540;-70
2023/05/23 11:35:03;;;;;;;20.52;4.32;;;13.40;82.70;;;;;;5087129;28;20122;-70
2023/05/23 11:37:29;;;;;;;16.90;2.97;;;13.20;68.90;;;;;;5077672;28;20045;-69
2023/05/23 11:39:56;;;;;;;22.33;3.25;;;13.30;70.70;;;;;;5087136;28;20452;-68
2023/05/23 11:42:23;;;;;;;22.02;4.10;;;13.50;75.80;;;;;;5085142;28;20043;-66
2023/05/23 11:44:50;;;;;;;16.25;3.28;;;13.60;70.30;;;;;;5104428;28;20410;-64
2023/05/23 11:47:16;;;;;;;18.05;3.88;;;13.70;52.20;;;;;;5090233;28;20060;-63
2023/05/23 11:49:46;;;;;;;26.08;4.10;;;13.70;44.70;;;;;;5091829;28;20088;-70
2023/05/23 11:52:12;;;;;;;19.23;4.18;;;13.80;48.10;;;;;;5102631;28;20039;-69
2023/05/23 11:54:42;;;;;;;26.58;4.28;;;13.70;47.90;;;;;;5073229;28;20047;-68
2023/05/23 11:57:09;;;;;;;19.45;3.95;;;13.70;60.20;;;;;;5087623;28;20047;-67
2023/05/23 11:59:35;;;;;;;19.55;3.22;;;13.80;60.90;;;;;;5090040;28;20047;-65
2023/05/23 12:02:04;;;;;;;20.00;3.40;;;13.80;53.30;;;;;;5089927;28;20088;-65
2023/05/23 12:04:30;;;;;;;21.45;3.60;;;13.70;54.50;;;;;;5090638;28;20055;-71
2023/05/23 12:06:56;;;;;;;26.35;4.20;;;13.50;57.20;;;;;;5089944;28;20035;-71
2023/05/23 12:09:21;;;;;;;16.38;3.95;;;13.30;59.50;;;;;;5090448;28;20124;-65
2023/05/23 12:11:48;;;;;;;20.17;3.30;;;13.20;73.60;;;;;;5093744;27;20446;-62
2023/05/23 12:14:17;;;;;;;16.70;3.20;;;13.10;61.20;;;;;;5078235;28;20043;-67
2023/05/23 12:16:45;;;;;;;14.90;2.95;;;13.30;53.90;;;;;;5090654;28;20104;-64
2023/05/23 12:19:11;;;;;;;17.88;3.13;;;13.60;55.30;;;;;;5090701;27;20052;-68
2023/05/23 12:21:47;;;;;;;19.55;3.75;;;13.60;32.90;;;;;;5073201;28;20130;-64
2023/05/23 12:24:15;;;;;;;14.52;3.20;;;13.70;45.60;;;;;;5089690;28;20043;-61
2023/05/23 12:26:58;;;;;;;12.75;2.65;;;13.80;42.00;;;;;;5073224;28;20044;-66
2023/05/23 12:29:35;;;;;;;21.52;3.10;;;13.90;32.20;;;;;;5090031;27;20050;-61
2023/05/23 12:32:03;;;;;;;23.35;3.33;;;13.80;30.40;;;;;;5090103;28;20048;-62
2023/05/23 12:34:29;;;;;;;22.50;3.25;;;13.90;37.50;;;;;;5089830;28;20501;-63
2023/05/23 12:36:56;;;;;;;18.58;3.38;;;14.00;26.60;;;;;;5089503;28;20043;-63
2023/05/23 12:39:28;;;;;;;18.45;3.53;;;13.90;33.20;;;;;;5090088;28;20043;-65
2023/05/23 12:42:05;;;;;;;15.75;3.45;;;13.90;25.20;;;;;;5103060;28;20108;-61